Perlez / Panicev Salas

RS-0070 · Vojvodina, Serbia

使用的METAR站距离机场39 km。
罗盘
风向 的 Perlez / Panicev Salas 15/33
风: 2 kt, 1 beaufort

2 kt

1 kt
改变
0 ft 1.000 2.000 3.000 4.000 5.000
CAVOK
METAR LYBT 220330Z VRB02KT CAVOK 20/19 Q1010 NOSIG

METAR Perlez / Panicev Salas - RS-0070

Perlez / Panicev Salas是,Serbia中的超轻型飞机场。 该机场位于纬度45,24611和经度20,48972。 该机场有一条跑道: 15/33. 这个机场没有ICAO代码,我们使用RS-0070作为参考。 机场在Beograd FIR中。

该航空气象观测是针对Batajnica Air Base在2024年7月22日 05:30, 当地时间进行的。

机场观察

可变方向的风很小或没有风。

天气为CAVOK。这意味着在5.000 ft或MSA(最低安全高度)以下(以较高者为准)以下没有云。这也意味着没有观测到积雨云或高耸的积云,可见度为10 km 或者更多或更高。此外,不会有雾,降雨或其他重要天气。

温度和风寒是20 °C。 露点为19 °C,相对湿度为94%。 海平面上的气压为1010 hPa (QNH)。

白天

今天,太阳从05:12升起,在20:16降落。 这适用于Perlez / Panicev Salas,世界夏令时可能有所不同。 当地时间与世界标准时间之间的时差为+2 小时。 夏令时目前正在进行中。

公司介绍

我们没有关于这个机场的公司信息。

体会

到Vliegles.nl去找飞行课程,跳伞和其他飞行体验。 浏览页面,了解Perlez / Panicev Salas附近所有可用的活动。 你也可以使用搜索功能来寻找你所在地附近的特定飞行课程、跳伞或其他飞行体验。

跑道

Id 标题 侧风 逆风 侧风 %
15/33 149°-329° 1 kt 2 kt 52 %

逆风成分最大的方向会被突出显示,并用于横风计算。 这并不一定意味着这个方向在使用。

温度 & 天气

温度 20 °C
露点 19 °C
相对湿度 94%
Kp-index 1 (0-9)

白天

日出
05:14
中午
12:45
日落
20:16 (14:17)

小工具

你想在你的网站上有一个关于Perlez / Panicev Salas的当前航空天气(METAR)的小部件吗?

显示HTML代码
报告变更